sensor_id;sensor_type;location;lat;lon;timestamp;P1;durP1;ratioP1;P2;durP2;ratioP2
2564;SDS011;1292;48.020;7.822;2024-03-02T06:45:34;4.93;;;2.30;;
2564;SDS011;1292;48.020;7.822;2024-03-02T06:48:01;2.70;;;2.50;;
2564;SDS011;1292;48.020;7.822;2024-03-02T06:50:28;3.20;;;2.90;;
2564;SDS011;1292;48.020;7.822;2024-03-02T06:52:55;3.40;;;2.63;;
2564;SDS011;1292;48.020;7.822;2024-03-02T06:55:22;7.33;;;3.30;;
2564;SDS011;1292;48.020;7.822;2024-03-02T06:57:50;3.43;;;3.13;;
2564;SDS011;1292;48.020;7.822;2024-03-02T07:00:17;4.10;;;3.20;;
2564;SDS011;1292;48.020;7.822;2024-03-02T07:02:46;3.13;;;2.80;;
2564;SDS011;1292;48.020;7.822;2024-03-02T07:05:13;6.90;;;3.40;;
2564;SDS011;1292;48.020;7.822;2024-03-02T07:07:40;3.77;;;3.37;;
2564;SDS011;1292;48.020;7.822;2024-03-02T07:10:07;6.40;;;3.50;;
2564;SDS011;1292;48.020;7.822;2024-03-02T07:12:34;11.60;;;4.37;;
2564;SDS011;1292;48.020;7.822;2024-03-02T07:15:01;7.10;;;3.50;;
2564;SDS011;1292;48.020;7.822;2024-03-02T07:18:01;3.53;;;3.20;;
2564;SDS011;1292;48.020;7.822;2024-03-02T07:20:28;3.80;;;2.80;;
2564;SDS011;1292;48.020;7.822;2024-03-02T07:22:54;4.23;;;3.53;;
2564;SDS011;1292;48.020;7.822;2024-03-02T07:25:21;3.63;;;3.33;;
2564;SDS011;1292;48.020;7.822;2024-03-02T07:27:48;5.20;;;3.13;;
2564;SDS011;1292;48.020;7.822;2024-03-02T07:30:15;6.17;;;3.40;;
2564;SDS011;1292;48.020;7.822;2024-03-02T07:32:42;4.43;;;3.10;;
2564;SDS011;1292;48.020;7.822;2024-03-02T07:35:12;2.90;;;2.67;;
2564;SDS011;1292;48.020;7.822;2024-03-02T07:37:39;5.27;;;4.30;;
2564;SDS011;1292;48.020;7.822;2024-03-02T07:40:07;5.70;;;5.03;;
2564;SDS011;1292;48.020;7.822;2024-03-02T07:42:36;8.00;;;6.90;;
2564;SDS011;1292;48.020;7.822;2024-03-02T07:45:04;8.20;;;7.40;;
2564;SDS011;1292;48.020;7.822;2024-03-02T07:47:32;8.47;;;5.50;;
2564;SDS011;1292;48.020;7.822;2024-03-02T07:49:59;4.43;;;3.83;;
2564;SDS011;1292;48.020;7.822;2024-03-02T07:52:28;4.53;;;3.43;;
2564;SDS011;1292;48.020;7.822;2024-03-02T07:54:55;4.47;;;3.60;;
2564;SDS011;1292;48.020;7.822;2024-03-02T07:57:21;4.33;;;3.10;;
2564;SDS011;1292;48.020;7.822;2024-03-02T07:59:48;4.30;;;3.80;;
2564;SDS011;1292;48.020;7.822;2024-03-02T08:02:15;4.10;;;3.53;;
2564;SDS011;1292;48.020;7.822;2024-03-02T08:04:43;4.27;;;3.13;;
2564;SDS011;1292;48.020;7.822;2024-03-02T08:07:11;2.97;;;2.67;;
2564;SDS011;1292;48.020;7.822;2024-03-02T08:09:39;2.73;;;2.47;;
2564;SDS011;1292;48.020;7.822;2024-03-02T08:12:06;2.20;;;2.00;;
2564;SDS011;1292;48.020;7.822;2024-03-02T08:14:33;3.60;;;3.30;;
2564;SDS011;1292;48.020;7.822;2024-03-02T08:17:00;3.47;;;3.00;;
2564;SDS011;1292;48.020;7.822;2024-03-02T08:19:27;2.53;;;2.33;;
2564;SDS011;1292;48.020;7.822;2024-03-02T08:21:54;2.73;;;2.33;;
2564;SDS011;1292;48.020;7.822;2024-03-02T08:24:21;2.23;;;2.03;;
2564;SDS011;1292;48.020;7.822;2024-03-02T08:26:49;4.07;;;1.77;;
2564;SDS011;1292;48.020;7.822;2024-03-02T08:29:16;2.80;;;2.13;;
2564;SDS011;1292;48.020;7.822;2024-03-02T08:31:43;2.20;;;2.00;;
2564;SDS011;1292;48.020;7.822;2024-03-02T08:34:10;3.10;;;1.87;;
2564;SDS011;1292;48.020;7.822;2024-03-02T08:36:36;1.67;;;1.00;;
2564;SDS011;1292;48.020;7.822;2024-03-02T08:39:04;1.00;;;0.90;;
2564;SDS011;1292;48.020;7.822;2024-03-02T08:41:40;2.17;;;0.93;;
2564;SDS011;1292;48.020;7.822;2024-03-02T08:44:08;2.00;;;1.20;;
2564;SDS011;1292;48.020;7.822;2024-03-02T08:46:35;5.50;;;1.20;;
2564;SDS011;1292;48.020;7.822;2024-03-02T08:49:02;1.20;;;1.07;;
2564;SDS011;1292;48.020;7.822;2024-03-02T08:51:29;1.50;;;1.40;;
2564;SDS011;1292;48.020;7.822;2024-03-02T08:53:56;2.50;;;1.30;;
2564;SDS011;1292;48.020;7.822;2024-03-02T08:56:23;2.80;;;1.30;;
2564;SDS011;1292;48.020;7.822;2024-03-02T08:58:50;1.80;;;1.53;;
2564;SDS011;1292;48.020;7.822;2024-03-02T09:01:19;1.00;;;0.90;;
2564;SDS011;1292;48.020;7.822;2024-03-02T09:03:46;1.40;;;1.10;;
2564;SDS011;1292;48.020;7.822;2024-03-02T09:06:14;1.27;;;1.13;;
2564;SDS011;1292;48.020;7.822;2024-03-02T09:08:42;2.30;;;1.17;;
2564;SDS011;1292;48.020;7.822;2024-03-02T09:11:10;2.73;;;1.33;;
2564;SDS011;1292;48.020;7.822;2024-03-02T09:13:37;2.70;;;1.77;;
2564;SDS011;1292;48.020;7.822;2024-03-02T09:16:04;4.00;;;1.03;;
2564;SDS011;1292;48.020;7.822;2024-03-02T09:18:33;2.20;;;1.07;;
2564;SDS011;1292;48.020;7.822;2024-03-02T09:21:00;0.83;;;0.80;;
2564;SDS011;1292;48.020;7.822;2024-03-02T09:23:27;0.73;;;0.73;;
2564;SDS011;1292;48.020;7.822;2024-03-02T09:25:53;1.93;;;1.10;;
2564;SDS011;1292;48.020;7.822;2024-03-02T09:28:20;0.80;;;0.70;;
2564;SDS011;1292;48.020;7.822;2024-03-02T09:30:47;2.03;;;1.10;;
2564;SDS011;1292;48.020;7.822;2024-03-02T09:33:14;1.50;;;1.07;;
2564;SDS011;1292;48.020;7.822;2024-03-02T09:35:42;1.23;;;0.77;;
2564;SDS011;1292;48.020;7.822;2024-03-02T09:38:09;0.73;;;0.73;;
2564;SDS011;1292;48.020;7.822;2024-03-02T09:40:36;1.10;;;1.00;;
2564;SDS011;1292;48.020;7.822;2024-03-02T09:43:02;1.70;;;1.50;;
2564;SDS011;1292;48.020;7.822;2024-03-02T09:45:30;0.90;;;0.90;;
2564;SDS011;1292;48.020;7.822;2024-03-02T09:47:56;1.23;;;0.93;;
2564;SDS011;1292;48.020;7.822;2024-03-02T09:50:23;1.33;;;0.77;;
2564;SDS011;1292;48.020;7.822;2024-03-02T09:52:51;2.30;;;2.10;;
2564;SDS011;1292;48.020;7.822;2024-03-02T09:55:19;1.27;;;1.10;;
2564;SDS011;1292;48.020;7.822;2024-03-02T09:57:47;1.57;;;1.20;;
2564;SDS011;1292;48.020;7.822;2024-03-02T10:00:15;3.00;;;1.17;;
2564;SDS011;1292;48.020;7.822;2024-03-02T10:02:42;0.80;;;0.80;;
2564;SDS011;1292;48.020;7.822;2024-03-02T10:05:09;0.90;;;0.80;;
2564;SDS011;1292;48.020;7.822;2024-03-02T10:07:37;1.73;;;0.80;;
2564;SDS011;1292;48.020;7.822;2024-03-02T10:10:13;1.27;;;0.73;;
2564;SDS011;1292;48.020;7.822;2024-03-02T10:12:41;0.97;;;0.87;;
2564;SDS011;1292;48.020;7.822;2024-03-02T10:15:08;1.17;;;1.07;;
2564;SDS011;1292;48.020;7.822;2024-03-02T10:17:35;1.10;;;1.00;;
2564;SDS011;1292;48.020;7.822;2024-03-02T10:22:50;0.70;;;0.70;;
2564;SDS011;1292;48.020;7.822;2024-03-02T10:25:29;1.80;;;1.30;;
2564;SDS011;1292;48.020;7.822;2024-03-02T10:27:57;0.80;;;0.80;;
2564;SDS011;1292;48.020;7.822;2024-03-02T10:30:25;0.97;;;0.77;;
2564;SDS011;1292;48.020;7.822;2024-03-02T10:32:52;1.00;;;0.80;;
2564;SDS011;1292;48.020;7.822;2024-03-02T10:35:20;1.80;;;0.80;;
2564;SDS011;1292;48.020;7.822;2024-03-02T10:37:48;1.00;;;0.90;;
2564;SDS011;1292;48.020;7.822;2024-03-02T10:40:15;0.70;;;0.70;;
2564;SDS011;1292;48.020;7.822;2024-03-02T10:42:44;0.80;;;0.70;;
2564;SDS011;1292;48.020;7.822;2024-03-02T10:45:11;1.60;;;1.00;;
2564;SDS011;1292;48.020;7.822;2024-03-02T10:47:39;1.17;;;1.03;;
2564;SDS011;1292;48.020;7.822;2024-03-02T10:50:08;1.10;;;1.00;;
2564;SDS011;1292;48.020;7.822;2024-03-02T10:52:35;1.00;;;0.90;;
2564;SDS011;1292;48.020;7.822;2024-03-02T10:55:03;1.20;;;1.10;;
2564;SDS011;1292;48.020;7.822;2024-03-02T10:57:32;2.73;;;0.93;;
2564;SDS011;1292;48.020;7.822;2024-03-02T11:00:11;2.30;;;1.10;;
2564;SDS011;1292;48.020;7.822;2024-03-02T11:02:40;1.10;;;1.00;;
2564;SDS011;1292;48.020;7.822;2024-03-02T11:05:14;0.90;;;0.80;;
2564;SDS011;1292;48.020;7.822;2024-03-02T11:07:51;1.60;;;1.00;;
2564;SDS011;1292;48.020;7.822;2024-03-02T11:10:22;1.10;;;0.77;;
2564;SDS011;1292;48.020;7.822;2024-03-02T11:12:53;1.23;;;0.90;;
2564;SDS011;1292;48.020;7.822;2024-03-02T11:15:25;1.00;;;0.90;;
2564;SDS011;1292;48.020;7.822;2024-03-02T11:17:53;1.33;;;1.07;;
2564;SDS011;1292;48.020;7.822;2024-03-02T11:20:22;1.47;;;1.20;;
2564;SDS011;1292;48.020;7.822;2024-03-02T11:22:49;3.27;;;1.10;;
2564;SDS011;1292;48.020;7.822;2024-03-02T11:25:22;1.13;;;1.00;;
2564;SDS011;1292;48.020;7.822;2024-03-02T11:27:59;1.60;;;1.23;;
2564;SDS011;1292;48.020;7.822;2024-03-02T11:33:23;2.07;;;1.67;;
2564;SDS011;1292;48.020;7.822;2024-03-02T11:35:53;1.00;;;0.90;;
2564;SDS011;1292;48.020;7.822;2024-03-02T11:38:21;1.17;;;0.83;;
2564;SDS011;1292;48.020;7.822;2024-03-02T11:40:50;1.57;;;1.40;;
2564;SDS011;1292;48.020;7.822;2024-03-02T11:43:16;1.73;;;1.40;;
2564;SDS011;1292;48.020;7.822;2024-03-02T11:45:43;1.10;;;1.00;;
2564;SDS011;1292;48.020;7.822;2024-03-02T11:48:13;1.47;;;1.03;;
2564;SDS011;1292;48.020;7.822;2024-03-02T11:50:41;1.40;;;1.27;;
2564;SDS011;1292;48.020;7.822;2024-03-02T11:53:12;0.97;;;0.90;;
2564;SDS011;1292;48.020;7.822;2024-03-02T11:55:39;1.73;;;1.23;;
2564;SDS011;1292;48.020;7.822;2024-03-02T11:58:09;1.20;;;1.10;;
2564;SDS011;1292;48.020;7.822;2024-03-02T12:00:35;1.50;;;1.10;;
2564;SDS011;1292;48.020;7.822;2024-03-02T12:03:03;0.83;;;0.83;;
2564;SDS011;1292;48.020;7.822;2024-03-02T12:05:34;1.70;;;1.57;;
2564;SDS011;1292;48.020;7.822;2024-03-02T12:08:03;1.90;;;1.00;;
2564;SDS011;1292;48.020;7.822;2024-03-02T12:10:31;1.83;;;1.10;;
2564;SDS011;1292;48.020;7.822;2024-03-02T12:12:58;1.00;;;0.90;;
2564;SDS011;1292;48.020;7.822;2024-03-02T12:15:26;0.97;;;0.83;;
2564;SDS011;1292;48.020;7.822;2024-03-02T12:17:54;1.17;;;1.00;;
2564;SDS011;1292;48.020;7.822;2024-03-02T12:20:21;0.90;;;0.90;;
2564;SDS011;1292;48.020;7.822;2024-03-02T12:22:51;1.63;;;0.80;;
2564;SDS011;1292;48.020;7.822;2024-03-02T12:25:18;1.53;;;1.00;;
2564;SDS011;1292;48.020;7.822;2024-03-02T12:27:46;1.07;;;0.97;;
2564;SDS011;1292;48.020;7.822;2024-03-02T12:30:14;0.70;;;0.70;;
2564;SDS011;1292;48.020;7.822;2024-03-02T12:32:42;1.23;;;1.00;;
2564;SDS011;1292;48.020;7.822;2024-03-02T12:35:10;1.00;;;0.90;;
2564;SDS011;1292;48.020;7.822;2024-03-02T12:37:43;0.93;;;0.70;;
2564;SDS011;1292;48.020;7.822;2024-03-02T12:40:12;1.43;;;0.70;;
2564;SDS011;1292;48.020;7.822;2024-03-02T12:42:40;1.50;;;1.07;;
2564;SDS011;1292;48.020;7.822;2024-03-02T12:45:07;0.90;;;0.90;;
2564;SDS011;1292;48.020;7.822;2024-03-02T12:47:35;1.10;;;1.00;;
2564;SDS011;1292;48.020;7.822;2024-03-02T12:50:03;0.90;;;0.90;;
2564;SDS011;1292;48.020;7.822;2024-03-02T12:52:30;2.07;;;1.07;;
2564;SDS011;1292;48.020;7.822;2024-03-02T12:54:59;0.90;;;0.70;;
2564;SDS011;1292;48.020;7.822;2024-03-02T12:57:27;1.30;;;1.00;;
2564;SDS011;1292;48.020;7.822;2024-03-02T12:59:57;1.20;;;0.97;;
2564;SDS011;1292;48.020;7.822;2024-03-02T13:02:27;0.83;;;0.83;;
2564;SDS011;1292;48.020;7.822;2024-03-02T13:04:54;1.23;;;1.07;;
2564;SDS011;1292;48.020;7.822;2024-03-02T13:07:22;0.60;;;0.60;;
2564;SDS011;1292;48.020;7.822;2024-03-02T13:09:49;0.93;;;0.83;;
2564;SDS011;1292;48.020;7.822;2024-03-02T13:12:16;1.33;;;0.90;;
2564;SDS011;1292;48.020;7.822;2024-03-02T13:14:44;0.70;;;0.70;;
2564;SDS011;1292;48.020;7.822;2024-03-02T13:17:14;1.23;;;0.80;;
2564;SDS011;1292;48.020;7.822;2024-03-02T13:19:43;1.47;;;1.00;;
2564;SDS011;1292;48.020;7.822;2024-03-02T13:22:17;1.20;;;1.10;;
2564;SDS011;1292;48.020;7.822;2024-03-02T13:24:44;1.07;;;0.80;;
2564;SDS011;1292;48.020;7.822;2024-03-02T13:27:11;0.90;;;0.80;;
2564;SDS011;1292;48.020;7.822;2024-03-02T13:29:38;1.83;;;1.33;;
2564;SDS011;1292;48.020;7.822;2024-03-02T13:32:10;0.70;;;0.70;;
2564;SDS011;1292;48.020;7.822;2024-03-02T13:34:37;1.00;;;0.93;;
2564;SDS011;1292;48.020;7.822;2024-03-02T13:37:03;1.10;;;0.80;;
2564;SDS011;1292;48.020;7.822;2024-03-02T13:39:30;1.40;;;1.13;;
2564;SDS011;1292;48.020;7.822;2024-03-02T13:41:58;1.10;;;1.00;;
2564;SDS011;1292;48.020;7.822;2024-03-02T13:44:29;1.50;;;1.00;;
2564;SDS011;1292;48.020;7.822;2024-03-02T13:46:56;1.50;;;1.10;;
2564;SDS011;1292;48.020;7.822;2024-03-02T13:49:25;1.63;;;1.40;;
2564;SDS011;1292;48.020;7.822;2024-03-02T13:51:58;1.40;;;1.30;;
2564;SDS011;1292;48.020;7.822;2024-03-02T13:54:28;1.40;;;1.30;;
2564;SDS011;1292;48.020;7.822;2024-03-02T13:56:55;1.47;;;1.07;;
2564;SDS011;1292;48.020;7.822;2024-03-02T13:59:22;1.43;;;1.10;;
2564;SDS011;1292;48.020;7.822;2024-03-02T14:01:49;1.23;;;0.90;;
2564;SDS011;1292;48.020;7.822;2024-03-02T14:04:16;1.60;;;1.23;;
2564;SDS011;1292;48.020;7.822;2024-03-02T14:06:45;2.03;;;1.10;;
2564;SDS011;1292;48.020;7.822;2024-03-02T14:09:12;1.43;;;1.13;;
2564;SDS011;1292;48.020;7.822;2024-03-02T14:11:38;2.30;;;1.33;;
2564;SDS011;1292;48.020;7.822;2024-03-02T14:14:05;2.10;;;1.37;;
2564;SDS011;1292;48.020;7.822;2024-03-02T14:16:32;1.70;;;1.10;;
2564;SDS011;1292;48.020;7.822;2024-03-02T14:19:00;2.93;;;1.43;;
2564;SDS011;1292;48.020;7.822;2024-03-02T14:21:27;1.90;;;1.17;;
2564;SDS011;1292;48.020;7.822;2024-03-02T14:23:56;1.03;;;0.93;;
2564;SDS011;1292;48.020;7.822;2024-03-02T14:26:23;1.73;;;1.20;;
2564;SDS011;1292;48.020;7.822;2024-03-02T14:28:50;1.33;;;1.10;;
2564;SDS011;1292;48.020;7.822;2024-03-02T14:31:17;1.17;;;1.07;;
2564;SDS011;1292;48.020;7.822;2024-03-02T14:33:45;1.30;;;1.20;;
2564;SDS011;1292;48.020;7.822;2024-03-02T14:36:11;1.40;;;1.30;;
2564;SDS011;1292;48.020;7.822;2024-03-02T14:38:38;1.50;;;1.10;;
2564;SDS011;1292;48.020;7.822;2024-03-02T14:41:07;3.00;;;1.00;;
2564;SDS011;1292;48.020;7.822;2024-03-02T14:43:34;1.20;;;0.90;;
2564;SDS011;1292;48.020;7.822;2024-03-02T14:46:02;1.00;;;0.80;;
2564;SDS011;1292;48.020;7.822;2024-03-02T14:48:30;1.20;;;1.03;;
2564;SDS011;1292;48.020;7.822;2024-03-02T14:50:57;1.27;;;1.00;;
2564;SDS011;1292;48.020;7.822;2024-03-02T14:53:24;1.50;;;1.20;;
2564;SDS011;1292;48.020;7.822;2024-03-02T14:55:51;1.50;;;1.40;;
2564;SDS011;1292;48.020;7.822;2024-03-02T14:58:19;1.80;;;1.20;;
2564;SDS011;1292;48.020;7.822;2024-03-02T15:00:46;1.40;;;1.30;;
2564;SDS011;1292;48.020;7.822;2024-03-02T15:03:13;1.43;;;1.33;;
2564;SDS011;1292;48.020;7.822;2024-03-02T15:05:40;0.80;;;0.80;;
2564;SDS011;1292;48.020;7.822;2024-03-02T15:08:07;2.40;;;1.20;;
2564;SDS011;1292;48.020;7.822;2024-03-02T15:10:34;1.53;;;1.40;;
2564;SDS011;1292;48.020;7.822;2024-03-02T15:13:01;1.67;;;1.40;;
2564;SDS011;1292;48.020;7.822;2024-03-02T15:15:30;3.20;;;2.00;;
2564;SDS011;1292;48.020;7.822;2024-03-02T15:17:57;1.67;;;1.40;;
2564;SDS011;1292;48.020;7.822;2024-03-02T15:20:24;2.87;;;2.07;;
2564;SDS011;1292;48.020;7.822;2024-03-02T15:22:51;2.17;;;1.60;;
2564;SDS011;1292;48.020;7.822;2024-03-02T15:25:18;2.23;;;1.40;;
2564;SDS011;1292;48.020;7.822;2024-03-02T15:27:45;1.70;;;1.13;;
2564;SDS011;1292;48.020;7.822;2024-03-02T15:30:12;1.77;;;1.50;;
2564;SDS011;1292;48.020;7.822;2024-03-02T15:32:41;2.33;;;1.67;;
2564;SDS011;1292;48.020;7.822;2024-03-02T15:35:08;4.43;;;1.60;;
2564;SDS011;1292;48.020;7.822;2024-03-02T15:37:35;1.93;;;1.57;;
2564;SDS011;1292;48.020;7.822;2024-03-02T15:40:02;1.60;;;1.10;;
2564;SDS011;1292;48.020;7.822;2024-03-02T15:42:32;2.30;;;1.97;;
2564;SDS011;1292;48.020;7.822;2024-03-02T15:44:59;2.97;;;1.40;;
2564;SDS011;1292;48.020;7.822;2024-03-02T15:47:26;1.67;;;1.30;;
2564;SDS011;1292;48.020;7.822;2024-03-02T15:49:54;2.10;;;1.50;;
2564;SDS011;1292;48.020;7.822;2024-03-02T15:52:21;2.17;;;1.97;;
2564;SDS011;1292;48.020;7.822;2024-03-02T15:54:48;2.13;;;2.03;;
2564;SDS011;1292;48.020;7.822;2024-03-02T15:57:15;4.33;;;2.47;;
2564;SDS011;1292;48.020;7.822;2024-03-02T15:59:43;3.17;;;2.43;;
2564;SDS011;1292;48.020;7.822;2024-03-02T16:02:10;2.33;;;2.00;;
2564;SDS011;1292;48.020;7.822;2024-03-02T16:04:36;2.80;;;1.77;;
2564;SDS011;1292;48.020;7.822;2024-03-02T16:07:05;3.07;;;1.70;;
2564;SDS011;1292;48.020;7.822;2024-03-02T16:09:32;2.30;;;1.83;;
2564;SDS011;1292;48.020;7.822;2024-03-02T16:11:58;1.50;;;1.33;;
2564;SDS011;1292;48.020;7.822;2024-03-02T16:14:25;2.13;;;1.90;;
2564;SDS011;1292;48.020;7.822;2024-03-02T16:16:52;3.30;;;3.00;;
2564;SDS011;1292;48.020;7.822;2024-03-02T16:19:19;4.13;;;3.07;;
2564;SDS011;1292;48.020;7.822;2024-03-02T16:21:45;2.47;;;2.27;;
2564;SDS011;1292;48.020;7.822;2024-03-02T16:24:13;2.27;;;2.07;;
2564;SDS011;1292;48.020;7.822;2024-03-02T16:26:40;3.47;;;2.60;;
2564;SDS011;1292;48.020;7.822;2024-03-02T16:29:07;3.50;;;3.20;;
2564;SDS011;1292;48.020;7.822;2024-03-02T16:31:34;3.00;;;2.40;;
2564;SDS011;1292;48.020;7.822;2024-03-02T16:34:01;2.90;;;2.50;;
2564;SDS011;1292;48.020;7.822;2024-03-02T16:36:27;2.50;;;2.30;;
2564;SDS011;1292;48.020;7.822;2024-03-02T16:38:57;2.40;;;2.10;;
2564;SDS011;1292;48.020;7.822;2024-03-02T16:41:25;3.97;;;3.60;;
2564;SDS011;1292;48.020;7.822;2024-03-02T16:43:54;2.70;;;2.50;;
2564;SDS011;1292;48.020;7.822;2024-03-02T16:46:22;2.77;;;2.57;;
2564;SDS011;1292;48.020;7.822;2024-03-02T16:48:48;2.67;;;2.47;;
2564;SDS011;1292;48.020;7.822;2024-03-02T16:51:15;2.60;;;2.40;;
2564;SDS011;1292;48.020;7.822;2024-03-02T16:53:42;2.80;;;2.60;;
2564;SDS011;1292;48.020;7.822;2024-03-02T16:56:09;2.30;;;2.10;;
2564;SDS011;1292;48.020;7.822;2024-03-02T16:58:37;2.77;;;2.50;;
2564;SDS011;1292;48.020;7.822;2024-03-02T17:01:04;4.20;;;2.77;;
2564;SDS011;1292;48.020;7.822;2024-03-02T17:03:30;2.80;;;2.10;;
2564;SDS011;1292;48.020;7.822;2024-03-02T17:05:57;4.23;;;2.50;;
2564;SDS011;1292;48.020;7.822;2024-03-02T17:08:24;4.80;;;3.37;;
2564;SDS011;1292;48.020;7.822;2024-03-02T17:10:51;3.03;;;2.30;;
2564;SDS011;1292;48.020;7.822;2024-03-02T17:13:18;6.60;;;3.30;;
2564;SDS011;1292;48.020;7.822;2024-03-02T17:15:46;3.30;;;2.27;;
2564;SDS011;1292;48.020;7.822;2024-03-02T17:18:13;3.63;;;3.20;;
2564;SDS011;1292;48.020;7.822;2024-03-02T17:20:39;3.00;;;2.80;;
2564;SDS011;1292;48.020;7.822;2024-03-02T17:23:06;6.80;;;2.70;;
2564;SDS011;1292;48.020;7.822;2024-03-02T17:25:33;5.23;;;3.30;;
2564;SDS011;1292;48.020;7.822;2024-03-02T17:28:19;7.20;;;3.97;;
2564;SDS011;1292;48.020;7.822;2024-03-02T17:30:48;12.00;;;8.70;;
2564;SDS011;1292;48.020;7.822;2024-03-02T17:33:15;8.93;;;5.77;;
2564;SDS011;1292;48.020;7.822;2024-03-02T17:35:41;5.93;;;4.53;;
2564;SDS011;1292;48.020;7.822;2024-03-02T17:38:10;6.77;;;5.33;;
2564;SDS011;1292;48.020;7.822;2024-03-02T17:40:37;6.07;;;4.47;;
2564;SDS011;1292;48.020;7.822;2024-03-02T17:43:04;6.57;;;4.23;;
2564;SDS011;1292;48.020;7.822;2024-03-02T17:45:31;6.80;;;6.20;;
2564;SDS011;1292;48.020;7.822;2024-03-02T17:47:59;5.40;;;4.70;;
2564;SDS011;1292;48.020;7.822;2024-03-02T17:50:26;10.27;;;6.37;;
2564;SDS011;1292;48.020;7.822;2024-03-02T17:52:52;7.63;;;6.90;;
2564;SDS011;1292;48.020;7.822;2024-03-02T17:55:20;8.60;;;6.90;;
2564;SDS011;1292;48.020;7.822;2024-03-02T17:57:47;5.83;;;5.03;;
2564;SDS011;1292;48.020;7.822;2024-03-02T18:00:15;6.30;;;5.53;;
2564;SDS011;1292;48.020;7.822;2024-03-02T18:02:44;6.40;;;5.40;;
2564;SDS011;1292;48.020;7.822;2024-03-02T18:05:12;6.47;;;4.67;;
2564;SDS011;1292;48.020;7.822;2024-03-02T18:07:40;15.73;;;10.30;;
2564;SDS011;1292;48.020;7.822;2024-03-02T18:10:07;8.77;;;6.70;;
2564;SDS011;1292;48.020;7.822;2024-03-02T18:12:34;8.43;;;6.37;;
2564;SDS011;1292;48.020;7.822;2024-03-02T18:15:00;10.70;;;9.03;;
2564;SDS011;1292;48.020;7.822;2024-03-02T18:17:27;12.70;;;10.60;;
2564;SDS011;1292;48.020;7.822;2024-03-02T18:19:54;11.33;;;9.80;;
2564;SDS011;1292;48.020;7.822;2024-03-02T18:22:22;18.53;;;14.20;;
2564;SDS011;1292;48.020;7.822;2024-03-02T18:24:49;15.10;;;12.77;;
2564;SDS011;1292;48.020;7.822;2024-03-02T18:27:16;35.73;;;26.93;;
2564;SDS011;1292;48.020;7.822;2024-03-02T18:29:43;23.97;;;14.80;;
2564;SDS011;1292;48.020;7.822;2024-03-02T18:32:10;9.40;;;6.90;;
2564;SDS011;1292;48.020;7.822;2024-03-02T18:34:37;8.53;;;7.40;;
2564;SDS011;1292;48.020;7.822;2024-03-02T18:37:04;7.87;;;6.00;;
2564;SDS011;1292;48.020;7.822;2024-03-02T18:39:32;6.70;;;5.93;;
2564;SDS011;1292;48.020;7.822;2024-03-02T18:41:58;7.30;;;4.23;;
2564;SDS011;1292;48.020;7.822;2024-03-02T18:44:25;7.00;;;4.77;;
2564;SDS011;1292;48.020;7.822;2024-03-02T18:46:52;9.37;;;5.07;;
2564;SDS011;1292;48.020;7.822;2024-03-02T18:49:19;5.70;;;4.60;;
2564;SDS011;1292;48.020;7.822;2024-03-02T18:51:47;5.87;;;5.37;;
2564;SDS011;1292;48.020;7.822;2024-03-02T18:54:13;5.87;;;5.10;;
2564;SDS011;1292;48.020;7.822;2024-03-02T18:56:42;5.30;;;4.90;;
2564;SDS011;1292;48.020;7.822;2024-03-02T18:59:09;5.30;;;4.57;;
2564;SDS011;1292;48.020;7.822;2024-03-02T19:01:36;3.77;;;3.47;;
2564;SDS011;1292;48.020;7.822;2024-03-02T19:04:03;6.70;;;4.97;;
2564;SDS011;1292;48.020;7.822;2024-03-02T19:06:30;5.53;;;4.83;;
2564;SDS011;1292;48.020;7.822;2024-03-02T19:08:57;4.33;;;3.93;;
2564;SDS011;1292;48.020;7.822;2024-03-02T19:11:24;6.83;;;4.47;;
2564;SDS011;1292;48.020;7.822;2024-03-02T19:13:52;6.97;;;6.10;;
2564;SDS011;1292;48.020;7.822;2024-03-02T19:16:19;9.40;;;5.03;;
2564;SDS011;1292;48.020;7.822;2024-03-02T19:18:46;5.20;;;4.43;;
2564;SDS011;1292;48.020;7.822;2024-03-02T19:21:13;7.23;;;5.30;;
2564;SDS011;1292;48.020;7.822;2024-03-02T19:23:40;5.47;;;4.50;;
2564;SDS011;1292;48.020;7.822;2024-03-02T19:26:07;8.13;;;7.43;;
2564;SDS011;1292;48.020;7.822;2024-03-02T19:28:34;2.90;;;2.70;;
2564;SDS011;1292;48.020;7.822;2024-03-02T19:31:02;3.43;;;2.63;;
2564;SDS011;1292;48.020;7.822;2024-03-02T19:33:30;8.30;;;5.60;;
2564;SDS011;1292;48.020;7.822;2024-03-02T19:35:56;6.40;;;5.80;;
2564;SDS011;1292;48.020;7.822;2024-03-02T19:38:23;7.37;;;6.60;;
2564;SDS011;1292;48.020;7.822;2024-03-02T19:40:50;6.83;;;5.70;;
2564;SDS011;1292;48.020;7.822;2024-03-02T19:43:17;6.03;;;5.37;;
2564;SDS011;1292;48.020;7.822;2024-03-02T19:45:45;5.97;;;5.37;;
2564;SDS011;1292;48.020;7.822;2024-03-02T19:48:13;5.23;;;4.23;;
2564;SDS011;1292;48.020;7.822;2024-03-02T19:50:42;6.70;;;4.80;;
2564;SDS011;1292;48.020;7.822;2024-03-02T19:53:09;7.20;;;5.43;;
2564;SDS011;1292;48.020;7.822;2024-03-02T19:55:36;6.87;;;4.70;;
2564;SDS011;1292;48.020;7.822;2024-03-02T19:58:03;5.50;;;5.00;;
2564;SDS011;1292;48.020;7.822;2024-03-02T20:00:30;5.73;;;5.10;;
2564;SDS011;1292;48.020;7.822;2024-03-02T20:02:57;6.03;;;5.43;;
2564;SDS011;1292;48.020;7.822;2024-03-02T20:05:25;6.67;;;5.97;;
2564;SDS011;1292;48.020;7.822;2024-03-02T20:07:52;7.60;;;6.33;;
2564;SDS011;1292;48.020;7.822;2024-03-02T20:10:19;6.90;;;5.13;;
2564;SDS011;1292;48.020;7.822;2024-03-02T20:12:46;7.70;;;5.60;;
2564;SDS011;1292;48.020;7.822;2024-03-02T20:15:13;9.80;;;6.00;;
2564;SDS011;1292;48.020;7.822;2024-03-02T20:17:42;7.37;;;5.67;;
2564;SDS011;1292;48.020;7.822;2024-03-02T20:20:11;7.60;;;5.50;;
2564;SDS011;1292;48.020;7.822;2024-03-02T20:22:42;6.67;;;5.97;;
2564;SDS011;1292;48.020;7.822;2024-03-02T20:25:08;8.73;;;6.43;;
2564;SDS011;1292;48.020;7.822;2024-03-02T20:27:37;7.37;;;5.80;;
2564;SDS011;1292;48.020;7.822;2024-03-02T20:30:07;7.37;;;6.63;;
2564;SDS011;1292;48.020;7.822;2024-03-02T20:32:34;7.93;;;6.57;;
2564;SDS011;1292;48.020;7.822;2024-03-02T20:35:01;6.57;;;5.87;;
2564;SDS011;1292;48.020;7.822;2024-03-02T20:37:28;11.83;;;6.53;;
2564;SDS011;1292;48.020;7.822;2024-03-02T20:39:56;8.33;;;6.20;;
2564;SDS011;1292;48.020;7.822;2024-03-02T20:42:23;7.60;;;6.17;;
2564;SDS011;1292;48.020;7.822;2024-03-02T20:44:50;8.50;;;6.50;;
2564;SDS011;1292;48.020;7.822;2024-03-02T20:47:17;5.77;;;4.90;;
2564;SDS011;1292;48.020;7.822;2024-03-02T20:49:44;5.93;;;5.33;;
2564;SDS011;1292;48.020;7.822;2024-03-02T20:52:11;6.53;;;4.13;;
2564;SDS011;1292;48.020;7.822;2024-03-02T20:54:38;5.73;;;4.57;;
2564;SDS011;1292;48.020;7.822;2024-03-02T20:57:06;7.60;;;4.97;;
2564;SDS011;1292;48.020;7.822;2024-03-02T20:59:33;5.10;;;4.60;;
2564;SDS011;1292;48.020;7.822;2024-03-02T21:02:00;5.57;;;4.90;;
2564;SDS011;1292;48.020;7.822;2024-03-02T21:04:27;6.47;;;4.50;;
2564;SDS011;1292;48.020;7.822;2024-03-02T21:06:54;8.97;;;5.30;;
2564;SDS011;1292;48.020;7.822;2024-03-02T21:09:21;5.83;;;5.13;;
2564;SDS011;1292;48.020;7.822;2024-03-02T21:11:47;10.43;;;5.70;;
2564;SDS011;1292;48.020;7.822;2024-03-02T21:14:16;5.93;;;5.40;;
2564;SDS011;1292;48.020;7.822;2024-03-02T21:16:42;6.67;;;5.37;;
2564;SDS011;1292;48.020;7.822;2024-03-02T21:19:09;5.37;;;4.40;;
2564;SDS011;1292;48.020;7.822;2024-03-02T21:21:36;7.10;;;5.73;;
2564;SDS011;1292;48.020;7.822;2024-03-02T21:24:06;4.50;;;3.83;;
2564;SDS011;1292;48.020;7.822;2024-03-02T21:26:36;9.80;;;7.30;;
2564;SDS011;1292;48.020;7.822;2024-03-02T21:29:04;6.90;;;5.57;;
2564;SDS011;1292;48.020;7.822;2024-03-02T21:31:32;9.03;;;5.57;;
2564;SDS011;1292;48.020;7.822;2024-03-02T21:33:59;7.20;;;5.67;;
2564;SDS011;1292;48.020;7.822;2024-03-02T21:36:25;7.53;;;5.80;;
2564;SDS011;1292;48.020;7.822;2024-03-02T21:38:52;6.57;;;4.80;;
2564;SDS011;1292;48.020;7.822;2024-03-02T21:41:19;6.47;;;5.30;;
2564;SDS011;1292;48.020;7.822;2024-03-02T21:43:47;6.97;;;4.93;;
2564;SDS011;1292;48.020;7.822;2024-03-02T21:46:14;5.70;;;4.33;;
2564;SDS011;1292;48.020;7.822;2024-03-02T21:48:42;6.00;;;4.23;;
2564;SDS011;1292;48.020;7.822;2024-03-02T21:51:13;6.23;;;5.20;;
2564;SDS011;1292;48.020;7.822;2024-03-02T21:53:41;6.30;;;5.70;;
2564;SDS011;1292;48.020;7.822;2024-03-02T21:56:08;5.43;;;4.93;;
2564;SDS011;1292;48.020;7.822;2024-03-02T21:58:36;6.53;;;5.60;;
2564;SDS011;1292;48.020;7.822;2024-03-02T22:01:03;5.47;;;4.83;;
2564;SDS011;1292;48.020;7.822;2024-03-02T22:03:30;7.20;;;5.90;;
2564;SDS011;1292;48.020;7.822;2024-03-02T22:05:59;7.37;;;5.83;;
2564;SDS011;1292;48.020;7.822;2024-03-02T22:08:25;7.20;;;5.40;;